Time;durP1;ratioP1;P1;durP2;ratioP2;P2;SDS_P1;SDS_P2;PMS_P1;PMS_P2;Temp;Humidity;BMP_temperature;BMP_pressure;BME280_temperature;BME280_humidity;BME280_pressure;Samples;Min_cycle;Max_cycle;Signal;HPM_P1;HPM_P2
2022/12/13 00:04:41;;;;;;;16.93;9.83;;;;;;;-1.13;87.04;99508.03;3190332;87;21023;-75
2022/12/13 00:09:32;;;;;;;15.72;11.28;;;;;;;-1.11;86.92;99511.52;3148275;89;21017;-75
2022/12/13 00:14:23;;;;;;;16.77;11.15;;;;;;;-1.09;86.77;99520.10;3195783;87;20975;-75
2022/12/13 00:19:15;;;;;;;15.75;10.15;;;;;;;-1.11;86.74;99520.45;3205280;87;21820;-75
2022/12/13 00:24:07;;;;;;;16.40;10.10;;;;;;;-1.11;86.68;99524.27;3124827;89;22241;-75
2022/12/13 00:29:02;;;;;;;14.10;10.03;;;;;;;-1.11;86.58;99520.45;3174537;88;21572;-75
2022/12/13 00:33:53;;;;;;;12.80;9.40;;;;;;;-1.13;86.51;99523.34;3212471;87;21024;-75
2022/12/13 00:38:45;;;;;;;9.05;6.75;;;;;;;-1.17;86.23;99529.56;3158017;87;21073;-75
2022/12/13 00:43:36;;;;;;;9.75;7.47;;;;;;;-1.21;86.24;99537.89;3159359;88;21011;-75
2022/12/13 00:48:27;;;;;;;12.68;8.78;;;;;;;-1.23;86.32;99536.95;3212759;88;21008;-75
2022/12/13 00:53:18;;;;;;;11.57;8.60;;;;;;;-1.23;86.23;99543.33;3202898;85;21023;-75
2022/12/13 00:58:09;;;;;;;11.50;9.10;;;;;;;-1.25;86.17;99544.95;3200413;88;21121;-75
2022/12/13 01:03:19;;;;;;;13.90;9.13;;;;;;;-1.31;85.98;99546.34;3242174;87;21002;-75
2022/12/13 01:07:53;;;;;;;11.48;8.30;;;;;;;-1.40;86.02;99553.16;3121174;89;20979;-75
2022/12/13 01:12:46;;;;;;;10.25;6.90;;;;;;;-1.44;86.00;99557.66;3217270;87;21021;-75
2022/12/13 01:17:37;;;;;;;10.13;7.67;;;;;;;-1.48;86.01;99562.15;3229657;87;21503;-75
2022/12/13 01:22:28;;;;;;;9.53;6.53;;;;;;;-1.54;85.89;99567.81;3217455;87;21054;-75
2022/12/13 01:27:19;;;;;;;10.60;7.62;;;;;;;-1.59;85.95;99566.34;3193502;87;21472;-75
2022/12/13 01:32:10;;;;;;;13.05;9.03;;;;;;;-1.63;85.98;99575.89;3141947;89;21036;-75
2022/12/13 01:37:01;;;;;;;10.63;7.35;;;;;;;-1.65;85.93;99571.54;3147102;89;21557;-75
2022/12/13 01:42:02;;;;;;;10.90;8.03;;;;;;;-1.65;86.11;99574.95;3215737;87;21054;-75
2022/12/13 01:46:50;;;;;;;11.30;8.33;;;;;;;-1.63;86.03;99579.72;3225772;87;21008;-74
2022/12/13 01:51:50;;;;;;;11.83;9.10;;;;;;;-1.58;86.05;99570.61;3163993;89;21003;-75
2022/12/13 01:56:48;;;;;;;10.08;7.45;;;;;;;-1.54;85.95;99572.53;3191229;88;21495;-74
2022/12/13 02:01:40;;;;;;;12.28;8.75;;;;;;;-1.51;86.01;99573.47;3191613;87;20996;-74
2022/12/13 02:06:42;;;;;;;11.08;8.50;;;;;;;-1.47;85.93;99584.27;3165400;88;21038;-75
2022/12/13 02:11:37;;;;;;;12.18;8.15;;;;;;;-1.41;85.99;99592.23;3191971;88;21517;-74
2022/12/13 02:16:55;;;;;;;13.70;9.78;;;;;;;-1.38;86.00;99589.80;3156924;89;21558;-74
2022/12/13 02:22:10;;;;;;;13.65;9.30;;;;;;;-1.33;85.86;99602.36;3171758;89;22098;-74
2022/12/13 02:27:24;;;;;;;12.78;8.68;;;;;;;-1.32;85.90;99611.78;3156515;88;20966;-75
2022/12/13 02:33:00;;;;;;;13.43;8.70;;;;;;;-1.30;85.82;99601.66;3200843;87;21548;-74
2022/12/13 02:37:59;;;;;;;10.72;7.72;;;;;;;-1.32;85.71;99599.02;3114237;90;21034;-74
2022/12/13 02:43:17;;;;;;;14.43;9.00;;;;;;;-1.34;85.59;99598.09;3180099;87;21040;-74
2022/12/13 02:48:12;;;;;;;14.07;9.68;;;;;;;-1.34;85.60;99605.73;3131594;90;21580;-75
2022/12/13 02:53:05;;;;;;;13.95;11.18;;;;;;;-1.32;85.61;99610.88;3094177;90;21120;-74
2022/12/13 02:57:56;;;;;;;15.38;11.73;;;;;;;-1.35;85.54;99606.52;3109000;90;21704;-75
2022/12/13 03:03:17;;;;;;;13.95;9.75;;;;;;;-1.38;85.43;99601.27;3085913;90;21139;-74
2022/12/13 03:08:26;;;;;;;14.87;10.78;;;;;;;-1.38;85.43;99601.27;3123241;89;21563;-74
2022/12/13 03:13:35;;;;;;;13.83;10.25;;;;;;;-1.33;85.59;99610.02;3183178;88;21254;-74
2022/12/13 03:18:27;;;;;;;13.83;9.28;;;;;;;-1.32;85.54;99619.80;3170485;88;20969;-75
2022/12/13 03:23:20;;;;;;;12.55;9.28;;;;;;;-1.31;85.53;99622.84;3241764;86;21024;-75
2022/12/13 03:28:12;;;;;;;11.80;8.48;;;;;;;-1.29;85.48;99619.55;3119417;89;20997;-75
2022/12/13 03:33:03;;;;;;;11.97;9.10;;;;;;;-1.29;85.18;99618.69;3146515;89;21133;-75
2022/12/13 03:37:54;;;;;;;11.12;8.65;;;;;;;-1.27;85.43;99617.97;3189799;88;21170;-75
2022/12/13 03:42:46;;;;;;;12.45;8.75;;;;;;;-1.27;85.14;99620.52;3190402;87;21023;-74
2022/12/13 03:47:37;;;;;;;9.80;8.03;;;;;;;-1.25;85.29;99620.19;3196853;88;21606;-75
2022/12/13 03:52:28;;;;;;;12.80;9.35;;;;;;;-1.22;85.32;99616.48;3223935;87;21518;-74
2022/12/13 03:57:19;;;;;;;12.35;8.08;;;;;;;-1.21;85.38;99614.41;3243488;87;21028;-74
2022/12/13 04:02:11;;;;;;;12.25;7.80;;;;;;;-1.19;85.20;99618.31;3205126;87;40736;-74
2022/12/13 04:07:02;;;;;;;13.18;9.38;;;;;;;-1.19;85.28;99615.35;3217914;87;20990;-75
2022/12/13 04:17:02;;;;;;;12.15;9.48;;;;;;;-1.18;85.25;99626.05;3118703;89;21003;-75
2022/12/13 04:21:54;;;;;;;13.72;10.15;;;;;;;-1.17;85.36;99635.42;3262399;85;21494;-74
2022/12/13 04:26:45;;;;;;;13.93;10.15;;;;;;;-1.17;85.34;99637.97;3191928;87;22091;-75
2022/12/13 04:31:36;;;;;;;14.95;11.65;;;;;;;-1.16;85.37;99642.28;3131172;89;20997;-74
2022/12/13 04:36:27;;;;;;;16.87;11.53;;;;;;;-1.16;85.45;99644.84;3196516;88;21033;-75
2022/12/13 04:41:19;;;;;;;16.45;11.78;;;;;;;-1.15;85.33;99650.80;3190141;88;20999;-75
2022/12/13 04:46:10;;;;;;;16.05;10.95;;;;;;;-1.17;85.25;99652.00;3233805;87;21037;-74
2022/12/13 04:51:02;;;;;;;18.12;12.45;;;;;;;-1.18;85.19;99655.38;3217716;87;21080;-74
2022/12/13 04:55:53;;;;;;;16.32;11.97;;;;;;;-1.19;85.21;99654.89;3218841;87;21010;-75
2022/12/13 05:00:44;;;;;;;14.13;10.60;;;;;;;-1.20;85.30;99656.98;3220962;87;21698;-75
2022/12/13 05:05:39;;;;;;;18.25;13.45;;;;;;;-1.20;85.28;99664.64;3212760;87;21007;-74
2022/12/13 05:10:30;;;;;;;18.27;11.50;;;;;;;-1.20;85.22;99663.36;3221367;87;20991;-74
2022/12/13 05:15:21;;;;;;;17.05;11.10;;;;;;;-1.20;85.11;99665.91;3224044;87;21699;-75
2022/12/13 05:20:12;;;;;;;19.67;13.38;;;;;;;-1.19;85.11;99661.67;3238735;85;21019;-76
2022/12/13 05:25:04;;;;;;;16.77;12.58;;;;;;;-1.22;85.11;99671.31;3238858;87;21465;-75
2022/12/13 05:29:56;;;;;;;13.90;10.58;;;;;;;-1.25;85.07;99669.92;3231478;86;21561;-75
2022/12/13 05:34:48;;;;;;;14.60;10.30;;;;;;;-1.26;84.88;99676.22;3233537;87;21521;-75
2022/12/13 05:39:40;;;;;;;17.62;12.03;;;;;;;-1.30;84.72;99680.71;3251885;87;21048;-75
2022/12/13 05:44:31;;;;;;;16.00;12.28;;;;;;;-1.40;84.71;99685.34;3200368;85;21552;-75
2022/12/13 05:49:23;;;;;;;14.25;10.03;;;;;;;-1.45;84.89;99695.75;3146068;88;21544;-75
2022/12/13 05:54:14;;;;;;;14.80;11.25;;;;;;;-1.46;84.74;99702.05;3138658;88;21038;-75
2022/12/13 05:59:05;;;;;;;12.78;9.10;;;;;;;-1.47;84.75;99697.73;3159329;88;20991;-75
2022/12/13 06:03:56;;;;;;;15.43;10.90;;;;;;;-1.46;84.82;99709.28;3160483;88;21549;-76
2022/12/13 06:08:47;;;;;;;16.37;9.90;;;;;;;-1.47;84.68;99710.07;3161927;88;21637;-76
2022/12/13 06:13:42;;;;;;;13.75;10.98;;;;;;;-1.46;84.71;99714.79;3161608;88;21088;-75
2022/12/13 06:18:35;;;;;;;17.20;10.50;;;;;;;-1.47;84.39;99728.33;3123506;90;21032;-75
2022/12/13 06:23:27;;;;;;;14.45;11.18;;;;;;;-1.52;84.13;99722.12;3139681;89;21103;-75
2022/12/13 06:28:18;;;;;;;13.60;10.53;;;;;;;-1.56;84.16;99733.84;3178978;88;21118;-76
2022/12/13 06:33:10;;;;;;;16.52;11.20;;;;;;;-1.58;84.11;99741.41;3170248;90;21030;-76
2022/12/13 06:38:01;;;;;;;12.98;8.98;;;;;;;-1.60;84.23;99746.84;3163260;88;21580;-75
2022/12/13 06:42:52;;;;;;;14.60;12.43;;;;;;;-1.64;83.75;99761.51;3169998;88;26619;-75
2022/12/13 06:47:43;;;;;;;14.53;9.58;;;;;;;-1.64;83.75;99761.51;3183142;87;21997;-76
2022/12/13 06:52:36;;;;;;;14.30;10.75;;;;;;;-1.64;84.07;99762.78;3185484;87;21308;-75
2022/12/13 06:57:27;;;;;;;14.87;9.50;;;;;;;-1.68;83.87;99763.44;3186000;88;22186;-75
2022/12/13 07:02:18;;;;;;;11.53;8.60;;;;;;;-1.69;83.99;99770.59;3140434;89;21585;-75
2022/12/13 07:07:09;;;;;;;15.53;9.63;;;;;;;-1.72;83.95;99780.63;3132655;89;21018;-74
2022/12/13 07:12:00;;;;;;;10.65;8.20;;;;;;;-1.73;83.77;99791.64;3124052;89;21168;-75
2022/12/13 07:16:51;;;;;;;11.30;8.95;;;;;;;-1.74;83.60;99795.83;3116821;89;21049;-75
2022/12/13 07:21:42;;;;;;;11.22;8.58;;;;;;;-1.76;83.46;99805.08;3123718;89;21708;-75
2022/12/13 07:26:33;;;;;;;12.65;8.40;;;;;;;-1.74;83.27;99810.26;3173194;88;21068;-75
2022/12/13 07:31:25;;;;;;;9.35;7.80;;;;;;;-1.74;83.03;99818.77;3127251;88;20914;-75
2022/12/13 07:36:22;;;;;;;9.15;7.30;;;;;;;-1.71;82.81;99820.62;3173973;88;20980;-75
2022/12/13 07:41:13;;;;;;;8.95;7.45;;;;;;;-1.74;82.28;99828.09;3181942;88;28756;-75
2022/12/13 07:46:07;;;;;;;9.85;7.30;;;;;;;-1.75;82.30;99832.73;3146043;89;21346;-75
2022/12/13 07:51:05;;;;;;;8.98;6.65;;;;;;;-1.73;82.42;99834.97;3127083;88;21269;-75
2022/12/13 07:55:56;;;;;;;8.00;5.95;;;;;;;-1.72;81.72;99850.71;3186035;88;20997;-75
2022/12/13 08:00:48;;;;;;;9.40;6.72;;;;;;;-1.66;81.75;99845.05;3190367;88;21786;-75
2022/12/13 08:05:39;;;;;;;9.63;6.80;;;;;;;-1.62;81.42;99852.95;3175008;88;21613;-75
2022/12/13 08:10:31;;;;;;;8.80;7.15;;;;;;;-1.59;81.53;99869.69;3190127;87;21012;-75
2022/12/13 08:15:23;;;;;;;10.95;7.97;;;;;;;-1.57;81.24;99865.54;3157992;88;21498;-76
2022/12/13 08:20:16;;;;;;;10.32;8.13;;;;;;;-1.49;81.00;99871.44;3165408;88;21066;-75
2022/12/13 08:25:07;;;;;;;11.63;7.50;;;;;;;-1.46;81.08;99881.80;3175514;88;21026;-75
2022/12/13 08:29:58;;;;;;;10.80;7.45;;;;;;;-1.47;80.99;99894.05;3196334;88;22097;-75
2022/12/13 08:34:49;;;;;;;10.60;8.03;;;;;;;-1.47;81.15;99891.51;3198437;88;20984;-75
2022/12/13 08:39:40;;;;;;;11.22;7.90;;;;;;;-1.46;80.97;99901.79;3242590;87;20943;-76
2022/12/13 08:44:31;;;;;;;11.38;8.95;;;;;;;-1.54;80.88;99896.67;3241068;87;20954;-74
2022/12/13 08:49:23;;;;;;;9.98;8.35;;;;;;;-1.49;81.21;99895.25;3156925;89;20939;-75
2022/12/13 08:54:14;;;;;;;11.25;8.75;;;;;;;-1.40;80.94;99905.91;3202183;87;21538;-76
2022/12/13 08:59:05;;;;;;;11.45;8.70;;;;;;;-1.23;80.59;99899.56;3147015;88;21526;-75
2022/12/13 09:03:56;;;;;;;9.98;8.05;;;;;;;-1.12;80.21;99905.20;3166213;88;21040;-75
2022/12/13 09:08:48;;;;;;;11.90;8.45;;;;;;;-1.11;79.63;99906.94;3181181;88;22042;-75
2022/12/13 09:13:40;;;;;;;10.98;8.08;;;;;;;-1.05;79.84;99912.37;3222241;87;21172;-75
2022/12/13 09:18:31;;;;;;;13.28;8.78;;;;;;;-0.95;79.79;99909.45;3200711;87;21080;-75
2022/12/13 09:23:22;;;;;;;11.22;8.65;;;;;;;-0.93;79.43;99912.98;3177411;87;20990;-75
2022/12/13 09:28:13;;;;;;;10.40;8.03;;;;;;;-0.80;79.32;99920.44;3168913;88;21200;-75
2022/12/13 09:33:05;;;;;;;8.83;7.92;;;;;;;-0.74;78.56;99926.65;3181058;88;21052;-76
2022/12/13 09:37:56;;;;;;;9.13;6.60;;;;;;;-0.80;78.51;99934.89;3207824;87;23221;-76
2022/12/13 09:42:51;;;;;;;8.35;6.45;;;;;;;-0.74;77.67;99931.76;3169220;88;21032;-76
2022/12/13 09:47:46;;;;;;;7.75;6.92;;;;;;;-0.72;77.73;99919.94;3167990;88;21286;-76
2022/12/13 09:52:41;;;;;;;9.15;6.90;;;;;;;-0.78;78.10;99934.15;3200557;87;20967;-76
2022/12/13 09:57:33;;;;;;;7.97;6.28;;;;;;;-0.80;77.97;99935.75;3204647;87;21495;-76
2022/12/13 10:02:31;;;;;;;10.78;7.70;;;;;;;-0.82;77.45;99932.25;3219399;87;21014;-76
2022/12/13 10:07:24;;;;;;;9.10;7.20;;;;;;;-0.93;77.99;99928.30;3190814;88;21025;-75
2022/12/13 10:12:16;;;;;;;8.73;7.42;;;;;;;-1.00;77.98;99937.72;3176390;88;21077;-75
2022/12/13 10:17:11;;;;;;;9.20;6.45;;;;;;;-1.06;77.84;99938.66;3179805;88;21024;-74
2022/12/13 10:22:07;;;;;;;8.50;7.53;;;;;;;-1.06;78.09;99938.66;3199797;88;21052;-75
2022/12/13 10:27:15;;;;;;;9.67;7.80;;;;;;;-1.22;77.79;99945.52;3168033;88;21061;-75
2022/12/13 10:32:11;;;;;;;;;;;;;;;-1.15;77.80;99947.59;3224874;87;21186;-76
2022/12/13 10:37:30;;;;;;;7.65;6.30;;;;;;;-1.19;78.00;99934.20;3224718;87;20091;-74
2022/12/13 10:42:21;;;;;;;9.20;7.42;;;;;;;-1.17;77.70;99933.88;3219205;87;21030;-76
2022/12/13 10:47:22;;;;;;;9.35;7.65;;;;;;;-1.09;78.09;99932.13;3216836;87;20997;-75
2022/12/13 10:52:33;;;;;;;8.28;7.37;;;;;;;-1.07;77.56;99925.41;3190610;88;20993;-75
2022/12/13 10:57:25;;;;;;;10.40;8.13;;;;;;;-1.04;77.74;99926.86;3210334;87;21102;-75
2022/12/13 11:02:38;;;;;;;10.10;7.55;;;;;;;-1.12;77.86;99926.48;3191160;87;21118;-75
2022/12/13 11:07:31;;;;;;;10.55;7.60;;;;;;;-1.24;78.02;99930.95;3227652;87;21071;-74
2022/12/13 11:12:26;;;;;;;9.93;8.08;;;;;;;-1.37;78.02;99934.55;3210312;88;21508;-75
2022/12/13 11:17:24;;;;;;;10.10;7.90;;;;;;;-1.31;78.62;99928.47;3202035;88;21032;-75
2022/12/13 11:22:28;;;;;;;8.98;7.45;;;;;;;-1.29;78.87;99935.80;3221365;88;21051;-75
2022/12/13 11:27:45;;;;;;;8.48;7.17;;;;;;;-1.25;78.74;99932.63;3190298;88;20969;-74
2022/12/13 11:33:07;;;;;;;8.65;7.20;;;;;;;-1.31;78.76;99936.12;3217423;86;20998;-74
2022/12/13 11:38:36;;;;;;;14.68;8.38;;;;;;;-1.09;78.86;99929.19;3222808;86;21554;-73
2022/12/13 11:43:38;;;;;;;8.85;7.08;;;;;;;-0.82;78.57;99930.98;3160499;88;21020;-75
2022/12/13 11:48:44;;;;;;;11.68;7.62;;;;;;;-0.36;77.77;99934.89;3219436;86;21269;-75
2022/12/13 11:53:40;;;;;;;10.65;7.70;;;;;;;0.13;77.40;99934.66;3207564;87;20971;-75
2022/12/13 11:58:37;;;;;;;11.43;9.17;;;;;;;0.13;76.54;99937.63;3179738;88;21044;-73
2022/12/13 12:03:43;;;;;;;7.90;7.10;;;;;;;0.20;76.49;99939.66;3239889;87;21503;-73
2022/12/13 12:08:48;;;;;;;10.23;6.60;;;;;;;0.09;75.45;99936.61;3239251;87;20985;-73
2022/12/13 12:13:54;;;;;;;10.72;8.20;;;;;;;0.18;75.71;99941.27;3222518;87;21578;-75
2022/12/13 12:18:45;;;;;;;9.20;7.42;;;;;;;0.27;75.49;99948.08;3244811;87;20996;-75
2022/12/13 12:23:48;;;;;;;9.45;8.05;;;;;;;0.24;75.00;99944.09;3242145;87;21045;-76
2022/12/13 12:29:16;;;;;;;9.55;7.70;;;;;;;0.11;75.22;99940.52;3263238;87;22112;-76
2022/12/13 12:34:34;;;;;;;9.48;7.35;;;;;;;-0.02;75.42;99948.89;3219516;87;21119;-73
2022/12/13 12:39:35;;;;;;;;;;;;;;;-0.34;75.17;99954.13;3155117;87;21909;-76
2022/12/13 12:44:53;;;;;;;9.48;7.87;;;;;;;-0.65;75.54;99954.77;3136027;90;20254;-75
2022/12/13 12:50:14;;;;;;;12.80;6.80;;;;;;;-0.94;75.81;99969.05;3136438;88;20996;-75
2022/12/13 12:55:20;;;;;;;13.40;8.53;;;;;;;-1.15;75.92;99975.65;3125424;90;21509;-75
2022/12/13 13:00:21;;;;;;;11.57;8.50;;;;;;;-1.31;75.91;99998.61;3115059;89;21078;-75
2022/12/13 13:05:23;;;;;;;9.05;7.33;;;;;;;-1.41;76.22;100001.08;3078451;91;21071;-75
2022/12/13 13:10:15;;;;;;;12.05;8.43;;;;;;;-1.33;76.47;99997.66;3057702;92;21045;-76
2022/12/13 13:15:34;;;;;;;12.47;8.93;;;;;;;-1.23;76.49;100006.28;3170561;88;21056;-76
2022/12/13 13:20:28;;;;;;;12.90;7.78;;;;;;;-1.29;76.17;100009.77;3154357;88;21007;-75
2022/12/13 13:25:33;;;;;;;12.33;9.03;;;;;;;-1.44;76.16;100017.48;3130408;89;21098;-76
2022/12/13 13:30:25;;;;;;;12.05;8.70;;;;;;;-1.48;76.68;100023.23;3237315;86;21568;-76
2022/12/13 13:35:44;;;;;;;11.03;8.00;;;;;;;-1.69;76.62;100025.48;3175666;87;21463;-76
2022/12/13 13:40:38;;;;;;;9.78;7.33;;;;;;;-1.86;76.73;100024.94;3190680;88;20998;-76
2022/12/13 13:45:30;;;;;;;12.10;8.73;;;;;;;-2.10;76.89;100024.05;3206504;87;21042;-75
2022/12/13 13:50:55;;;;;;;16.57;11.05;;;;;;;-2.31;77.12;100022.06;3166277;87;21027;-76
2022/12/13 13:56:21;;;;;;;16.15;11.20;;;;;;;-2.44;77.44;100036.14;3149659;89;21979;-76
2022/12/13 14:01:50;;;;;;;15.80;10.60;;;;;;;-2.52;77.47;100033.56;3185753;88;21553;-76
2022/12/13 14:06:56;;;;;;;16.55;11.20;;;;;;;-2.63;77.66;100038.39;3218116;87;20998;-75
2022/12/13 14:12:25;;;;;;;16.37;12.23;;;;;;;-2.76;77.86;100044.03;3192002;88;21498;-75
2022/12/13 14:17:39;;;;;;;15.40;10.38;;;;;;;-2.84;78.21;100050.34;3235559;87;21043;-75
2022/12/13 14:22:41;;;;;;;14.80;10.35;;;;;;;-2.87;78.21;100053.57;3167929;88;21074;-75
2022/12/13 14:27:53;;;;;;;12.18;9.33;;;;;;;-2.86;78.47;100057.02;3219457;87;21026;-75
2022/12/13 14:32:47;;;;;;;16.02;9.75;;;;;;;-2.85;78.30;100056.61;3237519;87;21128;-75
2022/12/13 14:37:38;;;;;;;17.55;10.00;;;;;;;-2.83;78.32;100063.53;3240743;87;21016;-75
2022/12/13 14:42:35;;;;;;;16.60;10.48;;;;;;;-2.88;78.49;100064.92;3213842;87;21082;-75
2022/12/13 14:47:26;;;;;;;15.35;9.68;;;;;;;-2.90;78.59;100069.05;3256609;86;21345;-75
2022/12/13 14:52:28;;;;;;;16.50;9.30;;;;;;;-2.91;78.54;100066.03;3144490;89;21079;-74
2022/12/13 14:57:22;;;;;;;21.17;10.63;;;;;;;-2.96;78.47;100059.78;3192915;88;20951;-74
2022/12/13 15:02:18;;;;;;;17.55;11.55;;;;;;;-3.04;78.50;100063.52;3178101;88;21070;-73
2022/12/13 15:07:33;;;;;;;19.12;11.83;;;;;;;-3.13;78.54;100069.83;3204558;87;21038;-73
2022/12/13 15:12:25;;;;;;;14.90;10.03;;;;;;;-3.17;78.71;100075.48;3157355;89;21166;-73
2022/12/13 15:17:33;;;;;;;17.35;11.12;;;;;;;-3.17;79.02;100083.11;3169715;88;21097;-74
2022/12/13 15:22:27;;;;;;;16.17;11.48;;;;;;;-3.17;78.91;100081.84;3215592;87;20954;-74
2022/12/13 15:27:23;;;;;;;20.23;12.33;;;;;;;-3.16;78.98;100087.42;3173892;88;20982;-74
2022/12/13 15:32:18;;;;;;;19.37;12.43;;;;;;;-3.10;79.23;100085.25;3208483;87;22043;-73
2022/12/13 15:37:24;;;;;;;20.30;12.95;;;;;;;-3.05;79.04;100089.76;3175945;88;21931;-74
2022/12/13 15:42:31;;;;;;;19.05;13.08;;;;;;;-3.00;79.17;100090.92;3180465;87;21030;-74
2022/12/13 15:47:23;;;;;;;;;;;;;;;-2.99;79.00;100085.03;3225173;87;21077;-74
2022/12/13 15:52:26;;;;;;;20.70;12.73;;;;;;;-2.99;78.97;100102.44;3190592;88;20159;-73
2022/12/13 15:57:28;;;;;;;19.90;12.60;;;;;;;-3.03;78.84;100098.36;3238846;87;20935;-73
2022/12/13 16:02:23;;;;;;;17.95;11.53;;;;;;;-3.04;79.02;100096.58;3203781;88;21130;-73
2022/12/13 16:07:27;;;;;;;21.75;14.75;;;;;;;-3.11;78.85;100098.77;3208130;87;21020;-74
2022/12/13 16:12:29;;;;;;;19.77;13.00;;;;;;;-3.18;78.96;100099.17;3194058;88;21009;-73
2022/12/13 16:17:28;;;;;;;19.95;13.50;;;;;;;-3.24;79.21;100103.86;3220552;86;21471;-73
2022/12/13 16:22:20;;;;;;;23.47;15.20;;;;;;;-3.25;79.20;100109.75;3210446;88;20993;-72
2022/12/13 16:27:11;;;;;;;23.57;14.35;;;;;;;-3.24;79.27;100111.48;3194134;88;21129;-74
2022/12/13 16:32:03;;;;;;;24.57;14.53;;;;;;;-3.23;79.29;100109.85;3184426;88;21530;-74
2022/12/13 16:36:54;;;;;;;22.82;14.38;;;;;;;-3.24;79.33;100108.95;3184686;87;21055;-74
2022/12/13 16:41:46;;;;;;;24.80;15.98;;;;;;;-3.29;79.35;100120.12;3171468;88;20997;-73
2022/12/13 16:46:40;;;;;;;21.10;13.98;;;;;;;-3.33;79.35;100120.69;3201518;88;20977;-73
2022/12/13 16:51:31;;;;;;;20.02;13.43;;;;;;;-3.39;79.59;100116.51;3217596;86;21627;-74
2022/12/13 16:56:22;;;;;;;21.77;14.70;;;;;;;-3.43;79.59;100123.83;3170816;88;21152;-74
2022/12/13 17:01:18;;;;;;;28.55;17.60;;;;;;;-3.50;79.59;100124.73;3139752;88;21059;-74
2022/12/13 17:06:11;;;;;;;27.00;17.07;;;;;;;-3.54;79.57;100135.48;3148257;88;21555;-73
2022/12/13 17:11:02;;;;;;;25.55;15.80;;;;;;;-3.55;79.69;100145.16;3139684;88;20968;-74
2022/12/13 17:15:54;;;;;;;25.92;17.05;;;;;;;-3.57;79.76;100147.98;3130243;89;21027;-74
2022/12/13 17:20:46;;;;;;;25.95;17.02;;;;;;;-3.55;79.89;100148.97;3175759;87;20987;-75
2022/12/13 17:25:39;;;;;;;22.37;15.63;;;;;;;-3.53;79.92;100141.44;3180504;87;20977;-74
2022/12/13 17:30:34;;;;;;;25.85;17.50;;;;;;;-3.54;80.00;100129.13;3141595;89;21048;-74
2022/12/13 17:35:26;;;;;;;24.82;16.37;;;;;;;-3.55;79.97;100137.53;3132977;88;21190;-74
2022/12/13 17:40:17;;;;;;;23.38;16.37;;;;;;;-3.57;80.00;100140.37;3159502;89;21947;-74
2022/12/13 17:45:09;;;;;;;25.70;16.55;;;;;;;-3.58;80.06;100151.70;3124939;88;21056;-75
2022/12/13 17:50:00;;;;;;;27.95;17.05;;;;;;;-3.59;80.08;100155.91;3188092;87;22359;-74
2022/12/13 17:54:51;;;;;;;27.17;17.12;;;;;;;-3.60;80.09;100161.77;3155233;88;24946;-75
2022/12/13 17:59:43;;;;;;;27.32;18.07;;;;;;;-3.57;80.34;100158.16;3211273;86;21420;-75
2022/12/13 18:04:34;;;;;;;23.90;16.35;;;;;;;-3.59;80.14;100161.00;3180560;87;21189;-75
2022/12/13 18:09:25;;;;;;;28.70;17.98;;;;;;;-3.59;80.17;100162.27;3203279;87;21005;-75
2022/12/13 18:14:16;;;;;;;30.05;19.73;;;;;;;-3.61;80.04;100165.10;3215055;87;21163;-74
2022/12/13 18:19:10;;;;;;;29.67;18.20;;;;;;;-3.60;80.09;100169.38;3197849;87;21583;-74
2022/12/13 18:24:01;;;;;;;27.17;17.65;;;;;;;-3.59;80.29;100169.89;3217566;87;21020;-74
2022/12/13 18:28:52;;;;;;;27.40;18.50;;;;;;;-3.57;80.29;100164.51;3162514;87;21017;-75
2022/12/13 18:33:45;;;;;;;32.05;19.25;;;;;;;-3.56;80.20;100170.09;3188901;88;21096;-74
2022/12/13 18:38:37;;;;;;;20.77;14.95;;;;;;;-3.55;80.30;100172.23;3193194;87;20996;-74
2022/12/13 18:43:29;;;;;;;30.92;20.00;;;;;;;-3.56;80.23;100176.45;3198050;86;21472;-74
2022/12/13 18:48:20;;;;;;;27.67;17.07;;;;;;;-3.60;80.31;100182.09;3193246;87;21606;-74
2022/12/13 18:53:11;;;;;;;28.20;19.35;;;;;;;-3.63;80.35;100189.54;3194850;87;21131;-74
2022/12/13 18:58:02;;;;;;;32.48;20.45;;;;;;;-3.64;80.49;100186.50;3156105;88;21005;-74
2022/12/13 19:02:53;;;;;;;31.17;19.73;;;;;;;-3.62;80.44;100207.80;3140629;89;20922;-74
2022/12/13 19:07:44;;;;;;;28.40;19.40;;;;;;;-3.62;80.44;100207.80;3147230;89;21556;-74
2022/12/13 19:12:35;;;;;;;28.98;18.12;;;;;;;-3.63;80.55;100200.97;3146265;89;21025;-75
2022/12/13 19:17:27;;;;;;;33.67;19.65;;;;;;;-3.60;80.61;100215.12;3172656;88;22082;-74
2022/12/13 19:22:18;;;;;;;36.48;21.85;;;;;;;-3.59;80.70;100208.01;3150961;89;21022;-74
2022/12/13 19:27:10;;;;;;;33.20;20.35;;;;;;;-3.56;80.69;100221.29;3146596;89;21042;-74
2022/12/13 19:32:01;;;;;;;34.25;21.17;;;;;;;-3.55;80.61;100223.94;3120088;90;20999;-74
2022/12/13 19:36:53;;;;;;;34.48;20.95;;;;;;;-3.54;80.65;100223.17;3137491;90;21539;-74
2022/12/13 19:41:44;;;;;;;32.98;20.10;;;;;;;-3.54;80.50;100223.17;3163712;87;21588;-75
2022/12/13 19:46:34;;;;;;;32.53;20.12;;;;;;;-3.59;80.47;100220.72;3158608;88;21142;-75
2022/12/13 19:51:26;;;;;;;31.65;20.05;;;;;;;-3.58;80.63;100216.10;3167052;88;21214;-74
2022/12/13 19:56:19;;;;;;;34.15;20.65;;;;;;;-3.57;80.63;100219.14;3171483;87;21026;-74
2022/12/13 20:01:11;;;;;;;30.27;19.73;;;;;;;-3.57;80.72;100219.14;3134640;89;21318;-74
2022/12/13 20:06:04;;;;;;;36.85;21.20;;;;;;;-3.57;80.63;100220.42;3171272;88;21698;-74
2022/12/13 20:11:04;;;;;;;33.55;21.37;;;;;;;-3.59;80.63;100219.44;3198702;86;21007;-75
2022/12/13 20:15:55;;;;;;;32.00;22.25;;;;;;;-3.57;80.75;100233.13;3152787;88;21041;-74
2022/12/13 20:20:46;;;;;;;32.00;20.92;;;;;;;-3.60;80.60;100233.31;3178917;87;25913;-74
2022/12/13 20:25:38;;;;;;;35.92;21.93;;;;;;;-3.64;80.56;100240.73;3167384;87;21919;-75
2022/12/13 20:30:30;;;;;;;32.08;20.25;;;;;;;-3.70;80.53;100244.52;3187382;88;21922;-75
2022/12/13 20:35:21;;;;;;;35.33;20.92;;;;;;;-3.82;80.40;100246.27;3212703;87;22403;-74
2022/12/13 20:40:12;;;;;;;35.80;22.93;;;;;;;-4.00;80.33;100250.60;3164264;88;21075;-74
2022/12/13 20:45:05;;;;;;;39.88;21.42;;;;;;;-4.13;80.37;100253.98;3220818;87;21119;-75
2022/12/13 20:49:56;;;;;;;37.95;23.67;;;;;;;-4.26;80.40;100247.16;3210669;87;21002;-75
2022/12/13 20:54:47;;;;;;;35.30;21.57;;;;;;;-4.42;80.36;100243.98;3217571;86;21023;-75
2022/12/13 21:00:11;;;;;;;39.35;22.48;;;;;;;-4.56;80.30;100250.13;3173751;88;21111;-74
2022/12/13 21:05:10;;;;;;;40.48;22.95;;;;;;;-4.75;80.04;100253.92;3177818;87;22160;-77
2022/12/13 21:10:01;;;;;;;36.35;23.47;;;;;;;-4.90;80.25;100268.04;3160746;87;24837;-78
2022/12/13 21:14:52;;;;;;;35.50;21.60;;;;;;;-5.03;80.53;100264.63;3216211;86;21057;-77
2022/12/13 21:19:45;;;;;;;35.33;21.65;;;;;;;-5.14;80.35;100261.72;3161675;88;21085;-76
2022/12/13 21:24:36;;;;;;;38.83;22.45;;;;;;;-5.28;79.98;100273.78;3160339;87;21048;-76
2022/12/13 21:29:27;;;;;;;35.90;21.15;;;;;;;-5.45;80.07;100277.23;3180977;88;21039;-76
2022/12/13 21:34:20;;;;;;;38.65;24.18;;;;;;;-5.59;79.81;100277.87;3198131;88;21024;-76
2022/12/13 21:39:16;;;;;;;42.35;22.75;;;;;;;-5.75;79.54;100280.52;3182151;88;21088;-77
2022/12/13 21:44:14;;;;;;;40.10;21.77;;;;;;;-5.92;79.03;100280.90;3180040;86;21013;-77
2022/12/13 21:49:06;;;;;;;39.13;21.62;;;;;;;-6.03;78.92;100284.31;3185674;86;21052;-77
2022/12/13 21:53:58;;;;;;;41.55;24.37;;;;;;;-6.12;79.40;100286.14;3170300;87;21069;-76
2022/12/13 22:03:59;;;;;;;37.78;23.60;;;;;;;-6.24;79.16;100284.81;3211055;87;22235;-77
2022/12/13 22:08:50;;;;;;;43.68;23.15;;;;;;;-6.36;78.96;100282.24;3253880;86;21917;-76
2022/12/13 22:13:41;;;;;;;43.13;24.47;;;;;;;-6.58;78.43;100283.47;3228084;87;20946;-76
2022/12/13 22:18:32;;;;;;;42.15;23.47;;;;;;;-6.58;78.43;100283.47;3214680;87;21499;-76
2022/12/13 22:23:24;;;;;;;44.98;23.55;;;;;;;-6.72;78.57;100287.48;3217392;85;21068;-76
2022/12/13 22:28:37;;;;;;;43.60;22.90;;;;;;;-6.83;78.45;100289.16;3210175;87;21060;-76
2022/12/13 22:33:30;;;;;;;45.38;26.85;;;;;;;-6.95;78.39;100287.80;3221116;86;20981;-76
2022/12/13 22:38:21;;;;;;;38.98;23.25;;;;;;;-7.05;78.38;100294.13;3221630;86;21675;-76
2022/12/13 22:43:12;;;;;;;35.17;21.40;;;;;;;-7.13;78.07;100295.19;3224719;87;22289;-76
2022/12/13 22:48:05;;;;;;;42.78;21.97;;;;;;;-7.26;77.65;100287.36;3224258;87;22139;-76
2022/12/13 22:52:56;;;;;;;38.28;19.60;;;;;;;-7.40;77.46;100295.08;3221013;87;21012;-77
2022/12/13 22:57:47;;;;;;;43.50;22.20;;;;;;;-7.51;77.69;100285.37;3215514;87;21589;-77